Duluth, Minnesota
Current Conditions -  °F | °C
As of 1:55 AM on Tuesday 21 Oct 2014 (Local Time) from KDLH Reporting Station
Overcast Overcast  
Wind Chill: 36°   Ceiling: 1200
Heat Index: 44°   Visibility: 10mi
Dew Point: 38°   Wind: 17mph
Humidity: 79%   Direction: 80°E
Pressure: 30.14"   Gusts: NA
Location:  46.79°N, 92.09°W
Report Text: KDLH 210655Z 08015KT 10SM BKN012 OVC020 07/03 A3014 RMK AO2 SLP217 T00670033
Loading
Personal Weather Stations






























Interactive Weather Map
Tropical Storm Tracking
New forecast layout! Learn more

10-Day Weather Forecast

Advertisements
Track Severe Weather on mobile